sensor_id;sensor_type;location;lat;lon;timestamp;P1;durP1;ratioP1;P2;durP2;ratioP2
64623;SDS011;51031;50.912;9.242;2023-05-01T00:00:06;153.18;;;107.15;;
64623;SDS011;51031;50.912;9.242;2023-05-01T00:00:23;148.23;;;103.75;;
64623;SDS011;51031;50.912;9.242;2023-05-01T00:00:42;160.38;;;111.25;;
64623;SDS011;51031;50.912;9.242;2023-05-01T00:00:58;156.15;;;108.30;;
64623;SDS011;51031;50.912;9.242;2023-05-01T00:01:15;156.30;;;108.63;;
64623;SDS011;51031;50.912;9.242;2023-05-01T00:01:31;167.10;;;114.97;;
64623;SDS011;51031;50.912;9.242;2023-05-01T00:01:47;167.02;;;114.20;;
64623;SDS011;51031;50.912;9.242;2023-05-01T00:02:03;159.38;;;110.10;;
64623;SDS011;51031;50.912;9.242;2023-05-01T00:02:20;168.75;;;116.72;;
64623;SDS011;51031;50.912;9.242;2023-05-01T00:02:36;175.20;;;119.10;;
64623;SDS011;51031;50.912;9.242;2023-05-01T00:02:52;171.55;;;115.93;;
64623;SDS011;51031;50.912;9.242;2023-05-01T00:03:08;169.10;;;115.82;;
64623;SDS011;51031;50.912;9.242;2023-05-01T00:03:24;160.20;;;109.55;;
64623;SDS011;51031;50.912;9.242;2023-05-01T00:03:40;152.93;;;105.70;;
64623;SDS011;51031;50.912;9.242;2023-05-01T00:03:57;155.85;;;108.95;;
64623;SDS011;51031;50.912;9.242;2023-05-01T00:04:13;148.60;;;104.00;;
64623;SDS011;51031;50.912;9.242;2023-05-01T00:04:29;146.60;;;103.50;;
64623;SDS011;51031;50.912;9.242;2023-05-01T00:04:45;142.35;;;101.43;;
64623;SDS011;51031;50.912;9.242;2023-05-01T00:05:01;113.18;;;80.07;;
64623;SDS011;51031;50.912;9.242;2023-05-01T00:05:17;84.47;;;58.78;;
64623;SDS011;51031;50.912;9.242;2023-05-01T00:05:34;111.07;;;75.82;;
64623;SDS011;51031;50.912;9.242;2023-05-01T00:05:50;131.02;;;90.82;;
64623;SDS011;51031;50.912;9.242;2023-05-01T00:06:05;129.90;;;90.70;;
64623;SDS011;51031;50.912;9.242;2023-05-01T00:06:22;160.85;;;111.10;;
64623;SDS011;51031;50.912;9.242;2023-05-01T00:06:38;170.93;;;117.82;;
64623;SDS011;51031;50.912;9.242;2023-05-01T00:06:54;156.40;;;109.20;;
64623;SDS011;51031;50.912;9.242;2023-05-01T00:07:10;131.88;;;92.18;;
64623;SDS011;51031;50.912;9.242;2023-05-01T00:07:27;121.97;;;84.82;;
64623;SDS011;51031;50.912;9.242;2023-05-01T00:07:45;144.43;;;100.28;;
64623;SDS011;51031;50.912;9.242;2023-05-01T00:08:01;135.38;;;94.22;;
64623;SDS011;51031;50.912;9.242;2023-05-01T00:08:17;147.40;;;102.97;;
64623;SDS011;51031;50.912;9.242;2023-05-01T00:08:33;161.32;;;110.35;;
64623;SDS011;51031;50.912;9.242;2023-05-01T00:08:50;161.68;;;110.05;;
64623;SDS011;51031;50.912;9.242;2023-05-01T00:09:06;148.70;;;103.55;;
64623;SDS011;51031;50.912;9.242;2023-05-01T00:09:22;150.57;;;106.20;;
64623;SDS011;51031;50.912;9.242;2023-05-01T00:09:37;145.02;;;101.25;;
64623;SDS011;51031;50.912;9.242;2023-05-01T00:09:53;111.50;;;77.03;;
64623;SDS011;51031;50.912;9.242;2023-05-01T00:10:09;129.90;;;89.93;;
64623;SDS011;51031;50.912;9.242;2023-05-01T00:10:26;163.67;;;113.23;;
64623;SDS011;51031;50.912;9.242;2023-05-01T00:10:43;166.38;;;113.63;;
64623;SDS011;51031;50.912;9.242;2023-05-01T00:11:01;161.52;;;109.28;;
64623;SDS011;51031;50.912;9.242;2023-05-01T00:11:17;160.30;;;109.90;;
64623;SDS011;51031;50.912;9.242;2023-05-01T00:11:33;164.05;;;112.55;;
64623;SDS011;51031;50.912;9.242;2023-05-01T00:11:51;150.77;;;104.03;;
64623;SDS011;51031;50.912;9.242;2023-05-01T00:12:07;146.48;;;102.03;;
64623;SDS011;51031;50.912;9.242;2023-05-01T00:12:25;155.15;;;107.15;;
64623;SDS011;51031;50.912;9.242;2023-05-01T00:12:41;159.45;;;110.35;;
64623;SDS011;51031;50.912;9.242;2023-05-01T00:12:57;155.68;;;107.97;;
64623;SDS011;51031;50.912;9.242;2023-05-01T00:13:14;144.68;;;101.40;;
64623;SDS011;51031;50.912;9.242;2023-05-01T00:13:32;143.68;;;100.50;;
64623;SDS011;51031;50.912;9.242;2023-05-01T00:13:50;149.48;;;103.32;;
64623;SDS011;51031;50.912;9.242;2023-05-01T00:14:06;154.50;;;106.47;;
64623;SDS011;51031;50.912;9.242;2023-05-01T00:14:22;151.52;;;104.40;;
64623;SDS011;51031;50.912;9.242;2023-05-01T00:14:38;158.13;;;109.20;;
64623;SDS011;51031;50.912;9.242;2023-05-01T00:14:54;167.68;;;115.75;;
64623;SDS011;51031;50.912;9.242;2023-05-01T00:15:10;155.13;;;106.57;;
64623;SDS011;51031;50.912;9.242;2023-05-01T00:15:26;107.73;;;75.83;;
64623;SDS011;51031;50.912;9.242;2023-05-01T00:15:41;85.63;;;62.47;;
64623;SDS011;51031;50.912;9.242;2023-05-01T00:15:57;129.13;;;92.10;;
64623;SDS011;51031;50.912;9.242;2023-05-01T00:16:13;154.27;;;106.60;;
64623;SDS011;51031;50.912;9.242;2023-05-01T00:16:31;154.02;;;107.63;;
64623;SDS011;51031;50.912;9.242;2023-05-01T00:16:46;125.68;;;88.72;;
64623;SDS011;51031;50.912;9.242;2023-05-01T00:17:02;130.67;;;90.70;;
64623;SDS011;51031;50.912;9.242;2023-05-01T00:17:18;150.95;;;105.47;;
64623;SDS011;51031;50.912;9.242;2023-05-01T00:17:33;150.80;;;105.10;;
64623;SDS011;51031;50.912;9.242;2023-05-01T00:17:49;154.67;;;108.03;;
64623;SDS011;51031;50.912;9.242;2023-05-01T00:18:07;133.68;;;93.05;;
64623;SDS011;51031;50.912;9.242;2023-05-01T00:18:22;80.50;;;54.90;;
64623;SDS011;51031;50.912;9.242;2023-05-01T00:18:38;27.17;;;17.05;;
64623;SDS011;51031;50.912;9.242;2023-05-01T00:18:54;12.48;;;6.60;;
64623;SDS011;51031;50.912;9.242;2023-05-01T00:19:09;21.17;;;13.53;;
64623;SDS011;51031;50.912;9.242;2023-05-01T00:19:27;56.80;;;39.05;;
64623;SDS011;51031;50.912;9.242;2023-05-01T00:19:42;68.13;;;46.80;;
64623;SDS011;51031;50.912;9.242;2023-05-01T00:19:58;97.20;;;66.85;;
64623;SDS011;51031;50.912;9.242;2023-05-01T00:20:14;83.63;;;57.80;;
64623;SDS011;51031;50.912;9.242;2023-05-01T00:20:30;72.57;;;49.97;;
64623;SDS011;51031;50.912;9.242;2023-05-01T00:20:47;125.22;;;85.43;;
64623;SDS011;51031;50.912;9.242;2023-05-01T00:21:02;150.18;;;101.60;;
64623;SDS011;51031;50.912;9.242;2023-05-01T00:21:18;142.93;;;97.75;;
64623;SDS011;51031;50.912;9.242;2023-05-01T00:21:34;138.85;;;97.38;;
64623;SDS011;51031;50.912;9.242;2023-05-01T00:21:50;142.43;;;100.78;;
64623;SDS011;51031;50.912;9.242;2023-05-01T00:22:07;149.63;;;104.05;;
64623;SDS011;51031;50.912;9.242;2023-05-01T00:22:24;151.98;;;103.40;;
64623;SDS011;51031;50.912;9.242;2023-05-01T00:22:40;131.35;;;89.85;;
64623;SDS011;51031;50.912;9.242;2023-05-01T00:22:55;124.13;;;87.07;;
64623;SDS011;51031;50.912;9.242;2023-05-01T00:23:12;146.43;;;101.63;;
64623;SDS011;51031;50.912;9.242;2023-05-01T00:23:27;148.32;;;102.45;;
64623;SDS011;51031;50.912;9.242;2023-05-01T00:23:44;141.98;;;99.05;;
64623;SDS011;51031;50.912;9.242;2023-05-01T00:24:00;143.10;;;100.03;;
64623;SDS011;51031;50.912;9.242;2023-05-01T00:24:15;142.53;;;98.83;;
64623;SDS011;51031;50.912;9.242;2023-05-01T00:24:32;126.70;;;88.63;;
64623;SDS011;51031;50.912;9.242;2023-05-01T00:24:47;130.95;;;90.57;;
64623;SDS011;51031;50.912;9.242;2023-05-01T00:25:04;128.00;;;87.82;;
64623;SDS011;51031;50.912;9.242;2023-05-01T00:25:21;111.50;;;77.25;;
64623;SDS011;51031;50.912;9.242;2023-05-01T00:25:37;120.33;;;82.60;;
64623;SDS011;51031;50.912;9.242;2023-05-01T00:25:57;147.90;;;99.95;;
64623;SDS011;51031;50.912;9.242;2023-05-01T00:26:13;144.45;;;98.45;;
64623;SDS011;51031;50.912;9.242;2023-05-01T00:26:33;140.18;;;96.80;;
64623;SDS011;51031;50.912;9.242;2023-05-01T00:26:49;142.55;;;99.05;;
64623;SDS011;51031;50.912;9.242;2023-05-01T00:27:05;148.50;;;102.40;;
64623;SDS011;51031;50.912;9.242;2023-05-01T00:27:20;147.45;;;100.68;;
64623;SDS011;51031;50.912;9.242;2023-05-01T00:27:36;123.18;;;83.65;;
64623;SDS011;51031;50.912;9.242;2023-05-01T00:27:53;67.45;;;45.70;;
64623;SDS011;51031;50.912;9.242;2023-05-01T00:28:09;31.13;;;21.13;;
64623;SDS011;51031;50.912;9.242;2023-05-01T00:28:25;30.25;;;20.60;;
64623;SDS011;51031;50.912;9.242;2023-05-01T00:28:41;74.13;;;49.87;;
64623;SDS011;51031;50.912;9.242;2023-05-01T00:28:57;115.85;;;79.15;;
64623;SDS011;51031;50.912;9.242;2023-05-01T00:29:14;78.57;;;54.92;;
64623;SDS011;51031;50.912;9.242;2023-05-01T00:29:29;70.15;;;49.03;;
64623;SDS011;51031;50.912;9.242;2023-05-01T00:29:45;70.45;;;48.53;;
64623;SDS011;51031;50.912;9.242;2023-05-01T00:30:01;62.03;;;43.38;;
64623;SDS011;51031;50.912;9.242;2023-05-01T00:30:17;86.82;;;61.35;;
64623;SDS011;51031;50.912;9.242;2023-05-01T00:30:33;119.00;;;81.28;;
64623;SDS011;51031;50.912;9.242;2023-05-01T00:30:50;124.22;;;85.03;;
64623;SDS011;51031;50.912;9.242;2023-05-01T00:31:06;126.57;;;88.57;;
64623;SDS011;51031;50.912;9.242;2023-05-01T00:31:22;133.98;;;93.18;;
64623;SDS011;51031;50.912;9.242;2023-05-01T00:31:38;137.88;;;95.10;;
64623;SDS011;51031;50.912;9.242;2023-05-01T00:31:56;140.07;;;95.55;;
64623;SDS011;51031;50.912;9.242;2023-05-01T00:32:13;139.18;;;94.43;;
64623;SDS011;51031;50.912;9.242;2023-05-01T00:32:29;132.30;;;91.57;;
64623;SDS011;51031;50.912;9.242;2023-05-01T00:32:45;130.85;;;91.55;;
64623;SDS011;51031;50.912;9.242;2023-05-01T00:33:01;131.57;;;92.00;;
64623;SDS011;51031;50.912;9.242;2023-05-01T00:33:16;132.10;;;90.78;;
64623;SDS011;51031;50.912;9.242;2023-05-01T00:33:33;133.60;;;91.35;;
64623;SDS011;51031;50.912;9.242;2023-05-01T00:33:49;130.45;;;89.97;;
64623;SDS011;51031;50.912;9.242;2023-05-01T00:34:04;129.55;;;89.40;;
64623;SDS011;51031;50.912;9.242;2023-05-01T00:34:21;128.98;;;89.50;;
64623;SDS011;51031;50.912;9.242;2023-05-01T00:34:37;123.95;;;86.07;;
64623;SDS011;51031;50.912;9.242;2023-05-01T00:34:54;123.72;;;85.47;;
64623;SDS011;51031;50.912;9.242;2023-05-01T00:35:11;124.22;;;84.47;;
64623;SDS011;51031;50.912;9.242;2023-05-01T00:35:28;109.55;;;75.80;;
64623;SDS011;51031;50.912;9.242;2023-05-01T00:35:44;103.70;;;72.50;;
64623;SDS011;51031;50.912;9.242;2023-05-01T00:36:00;91.35;;;65.25;;
64623;SDS011;51031;50.912;9.242;2023-05-01T00:36:17;76.70;;;55.10;;
64623;SDS011;51031;50.912;9.242;2023-05-01T00:36:32;66.35;;;45.40;;
64623;SDS011;51031;50.912;9.242;2023-05-01T00:36:48;69.40;;;46.65;;
64623;SDS011;51031;50.912;9.242;2023-05-01T00:37:03;46.73;;;32.33;;
64623;SDS011;51031;50.912;9.242;2023-05-01T00:37:19;62.25;;;45.17;;
64623;SDS011;51031;50.912;9.242;2023-05-01T00:37:36;108.25;;;76.78;;
64623;SDS011;51031;50.912;9.242;2023-05-01T00:37:52;123.88;;;85.25;;
64623;SDS011;51031;50.912;9.242;2023-05-01T00:38:08;118.03;;;81.07;;
64623;SDS011;51031;50.912;9.242;2023-05-01T00:38:24;93.38;;;64.55;;
64623;SDS011;51031;50.912;9.242;2023-05-01T00:38:39;100.75;;;70.15;;
64623;SDS011;51031;50.912;9.242;2023-05-01T00:38:55;106.53;;;74.60;;
64623;SDS011;51031;50.912;9.242;2023-05-01T00:39:12;111.60;;;77.65;;
64623;SDS011;51031;50.912;9.242;2023-05-01T00:39:27;123.72;;;85.63;;
64623;SDS011;51031;50.912;9.242;2023-05-01T00:39:43;123.17;;;83.87;;
64623;SDS011;51031;50.912;9.242;2023-05-01T00:39:59;125.10;;;86.13;;
64623;SDS011;51031;50.912;9.242;2023-05-01T00:40:15;125.00;;;86.32;;
64623;SDS011;51031;50.912;9.242;2023-05-01T00:40:30;124.07;;;85.70;;
64623;SDS011;51031;50.912;9.242;2023-05-01T00:40:46;124.20;;;86.18;;
64623;SDS011;51031;50.912;9.242;2023-05-01T00:41:04;126.00;;;87.22;;
64623;SDS011;51031;50.912;9.242;2023-05-01T00:41:21;128.73;;;88.72;;
64623;SDS011;51031;50.912;9.242;2023-05-01T00:41:36;126.50;;;86.03;;
64623;SDS011;51031;50.912;9.242;2023-05-01T00:41:52;122.25;;;84.93;;
64623;SDS011;51031;50.912;9.242;2023-05-01T00:42:09;115.57;;;81.47;;
64623;SDS011;51031;50.912;9.242;2023-05-01T00:42:25;101.38;;;70.72;;
64623;SDS011;51031;50.912;9.242;2023-05-01T00:42:42;105.85;;;73.15;;
64623;SDS011;51031;50.912;9.242;2023-05-01T00:42:58;90.55;;;63.28;;
64623;SDS011;51031;50.912;9.242;2023-05-01T00:43:13;91.20;;;64.60;;
64623;SDS011;51031;50.912;9.242;2023-05-01T00:43:30;111.55;;;77.28;;
64623;SDS011;51031;50.912;9.242;2023-05-01T00:43:45;121.07;;;81.18;;
64623;SDS011;51031;50.912;9.242;2023-05-01T00:44:02;120.18;;;82.22;;
64623;SDS011;51031;50.912;9.242;2023-05-01T00:44:18;112.82;;;78.45;;
64623;SDS011;51031;50.912;9.242;2023-05-01T00:44:34;118.65;;;82.18;;
64623;SDS011;51031;50.912;9.242;2023-05-01T00:44:50;120.18;;;83.88;;
64623;SDS011;51031;50.912;9.242;2023-05-01T00:45:06;127.60;;;88.27;;
64623;SDS011;51031;50.912;9.242;2023-05-01T00:45:23;129.98;;;88.88;;
64623;SDS011;51031;50.912;9.242;2023-05-01T00:45:43;128.63;;;88.80;;
64623;SDS011;51031;50.912;9.242;2023-05-01T00:45:59;119.72;;;84.75;;
64623;SDS011;51031;50.912;9.242;2023-05-01T00:46:16;115.80;;;81.43;;
64623;SDS011;51031;50.912;9.242;2023-05-01T00:46:32;116.90;;;80.57;;
64623;SDS011;51031;50.912;9.242;2023-05-01T00:46:48;122.38;;;82.95;;
64623;SDS011;51031;50.912;9.242;2023-05-01T00:47:05;123.07;;;84.43;;
64623;SDS011;51031;50.912;9.242;2023-05-01T00:47:21;122.35;;;84.95;;
64623;SDS011;51031;50.912;9.242;2023-05-01T00:47:37;118.33;;;81.47;;
64623;SDS011;51031;50.912;9.242;2023-05-01T00:47:52;116.30;;;79.50;;
64623;SDS011;51031;50.912;9.242;2023-05-01T00:48:08;108.45;;;74.55;;
64623;SDS011;51031;50.912;9.242;2023-05-01T00:48:25;109.30;;;75.30;;
64623;SDS011;51031;50.912;9.242;2023-05-01T00:48:41;115.45;;;78.75;;
64623;SDS011;51031;50.912;9.242;2023-05-01T00:48:57;115.35;;;80.57;;
64623;SDS011;51031;50.912;9.242;2023-05-01T00:49:13;82.53;;;58.60;;
64623;SDS011;51031;50.912;9.242;2023-05-01T00:49:31;93.22;;;65.10;;
64623;SDS011;51031;50.912;9.242;2023-05-01T00:49:47;119.40;;;82.82;;
64623;SDS011;51031;50.912;9.242;2023-05-01T00:50:07;114.70;;;78.40;;
64623;SDS011;51031;50.912;9.242;2023-05-01T00:50:23;114.53;;;79.03;;
64623;SDS011;51031;50.912;9.242;2023-05-01T00:50:39;127.03;;;86.67;;
64623;SDS011;51031;50.912;9.242;2023-05-01T00:50:56;131.07;;;89.45;;
64623;SDS011;51031;50.912;9.242;2023-05-01T00:51:12;129.57;;;89.22;;
64623;SDS011;51031;50.912;9.242;2023-05-01T00:51:29;128.75;;;88.55;;
64623;SDS011;51031;50.912;9.242;2023-05-01T00:51:46;124.50;;;85.20;;
64623;SDS011;51031;50.912;9.242;2023-05-01T00:52:07;118.70;;;81.80;;
64623;SDS011;51031;50.912;9.242;2023-05-01T00:52:24;118.63;;;83.25;;
64623;SDS011;51031;50.912;9.242;2023-05-01T00:52:40;121.95;;;83.65;;
64623;SDS011;51031;50.912;9.242;2023-05-01T00:52:56;123.90;;;83.63;;
64623;SDS011;51031;50.912;9.242;2023-05-01T00:53:12;119.22;;;80.45;;
64623;SDS011;51031;50.912;9.242;2023-05-01T00:53:28;118.70;;;79.55;;
64623;SDS011;51031;50.912;9.242;2023-05-01T00:53:44;117.90;;;80.82;;
64623;SDS011;51031;50.912;9.242;2023-05-01T00:54:01;113.95;;;78.90;;
64623;SDS011;51031;50.912;9.242;2023-05-01T00:54:17;114.72;;;78.43;;
64623;SDS011;51031;50.912;9.242;2023-05-01T00:54:34;116.97;;;79.88;;
64623;SDS011;51031;50.912;9.242;2023-05-01T00:54:50;116.78;;;79.18;;
64623;SDS011;51031;50.912;9.242;2023-05-01T00:55:07;114.57;;;77.55;;
64623;SDS011;51031;50.912;9.242;2023-05-01T00:55:23;104.18;;;72.63;;
64623;SDS011;51031;50.912;9.242;2023-05-01T00:55:40;91.47;;;64.03;;
64623;SDS011;51031;50.912;9.242;2023-05-01T00:55:56;93.75;;;65.57;;
64623;SDS011;51031;50.912;9.242;2023-05-01T00:56:16;105.20;;;73.15;;
64623;SDS011;51031;50.912;9.242;2023-05-01T00:56:33;112.50;;;77.57;;
64623;SDS011;51031;50.912;9.242;2023-05-01T00:56:51;113.82;;;78.57;;
64623;SDS011;51031;50.912;9.242;2023-05-01T00:57:06;105.53;;;73.87;;
64623;SDS011;51031;50.912;9.242;2023-05-01T00:57:24;106.85;;;75.03;;
64623;SDS011;51031;50.912;9.242;2023-05-01T00:57:39;114.90;;;80.43;;
64623;SDS011;51031;50.912;9.242;2023-05-01T00:57:55;126.13;;;86.68;;
64623;SDS011;51031;50.912;9.242;2023-05-01T00:58:11;127.78;;;87.30;;
64623;SDS011;51031;50.912;9.242;2023-05-01T00:58:29;122.88;;;84.43;;
64623;SDS011;51031;50.912;9.242;2023-05-01T00:58:46;124.03;;;85.20;;
64623;SDS011;51031;50.912;9.242;2023-05-01T00:59:05;127.68;;;86.75;;
64623;SDS011;51031;50.912;9.242;2023-05-01T00:59:21;127.00;;;85.88;;
64623;SDS011;51031;50.912;9.242;2023-05-01T00:59:36;123.47;;;82.95;;
64623;SDS011;51031;50.912;9.242;2023-05-01T00:59:53;117.93;;;80.20;;
64623;SDS011;51031;50.912;9.242;2023-05-01T01:00:10;117.07;;;79.85;;
64623;SDS011;51031;50.912;9.242;2023-05-01T01:00:27;116.80;;;79.55;;
64623;SDS011;51031;50.912;9.242;2023-05-01T01:00:43;111.82;;;77.35;;
64623;SDS011;51031;50.912;9.242;2023-05-01T01:00:59;111.47;;;77.03;;
64623;SDS011;51031;50.912;9.242;2023-05-01T01:01:15;108.32;;;74.82;;
64623;SDS011;51031;50.912;9.242;2023-05-01T01:01:32;108.80;;;74.93;;
64623;SDS011;51031;50.912;9.242;2023-05-01T01:01:49;112.45;;;76.82;;
64623;SDS011;51031;50.912;9.242;2023-05-01T01:02:05;110.63;;;77.10;;
64623;SDS011;51031;50.912;9.242;2023-05-01T01:02:20;112.93;;;79.70;;
64623;SDS011;51031;50.912;9.242;2023-05-01T01:02:36;119.38;;;82.45;;
64623;SDS011;51031;50.912;9.242;2023-05-01T01:02:52;119.47;;;81.05;;
64623;SDS011;51031;50.912;9.242;2023-05-01T01:03:09;115.75;;;79.68;;
64623;SDS011;51031;50.912;9.242;2023-05-01T01:03:25;116.50;;;80.43;;
64623;SDS011;51031;50.912;9.242;2023-05-01T01:03:42;114.50;;;79.13;;
64623;SDS011;51031;50.912;9.242;2023-05-01T01:03:57;100.55;;;68.57;;
64623;SDS011;51031;50.912;9.242;2023-05-01T01:04:14;107.90;;;73.63;;
64623;SDS011;51031;50.912;9.242;2023-05-01T01:04:30;107.38;;;74.07;;
64623;SDS011;51031;50.912;9.242;2023-05-01T01:04:47;108.25;;;74.32;;
64623;SDS011;51031;50.912;9.242;2023-05-01T01:05:03;109.90;;;76.72;;
64623;SDS011;51031;50.912;9.242;2023-05-01T01:05:20;103.95;;;73.40;;
64623;SDS011;51031;50.912;9.242;2023-05-01T01:05:39;105.03;;;72.50;;
64623;SDS011;51031;50.912;9.242;2023-05-01T01:06:03;82.82;;;58.55;;
64623;SDS011;51031;50.912;9.242;2023-05-01T01:06:25;93.72;;;65.35;;
64623;SDS011;51031;50.912;9.242;2023-05-01T01:06:48;82.00;;;57.53;;
64623;SDS011;51031;50.912;9.242;2023-05-01T01:07:10;98.32;;;67.85;;
64623;SDS011;51031;50.912;9.242;2023-05-01T01:07:36;107.03;;;75.28;;
64623;SDS011;51031;50.912;9.242;2023-05-01T01:07:58;100.15;;;69.40;;
64623;SDS011;51031;50.912;9.242;2023-05-01T01:08:22;113.53;;;79.40;;
64623;SDS011;51031;50.912;9.242;2023-05-01T01:08:45;115.18;;;79.30;;
64623;SDS011;51031;50.912;9.242;2023-05-01T01:09:12;99.55;;;69.57;;
64623;SDS011;51031;50.912;9.242;2023-05-01T01:09:40;102.28;;;70.82;;
64623;SDS011;51031;50.912;9.242;2023-05-01T01:10:08;95.60;;;67.28;;
64623;SDS011;51031;50.912;9.242;2023-05-01T01:10:34;94.97;;;66.55;;
64623;SDS011;51031;50.912;9.242;2023-05-01T01:10:58;116.15;;;80.95;;
64623;SDS011;51031;50.912;9.242;2023-05-01T01:11:26;95.13;;;66.57;;
64623;SDS011;51031;50.912;9.242;2023-05-01T01:11:52;112.07;;;77.60;;
64623;SDS011;51031;50.912;9.242;2023-05-01T01:12:18;114.70;;;78.85;;
64623;SDS011;51031;50.912;9.242;2023-05-01T01:12:42;119.50;;;82.05;;
64623;SDS011;51031;50.912;9.242;2023-05-01T01:13:07;114.43;;;79.13;;
64623;SDS011;51031;50.912;9.242;2023-05-01T01:13:29;121.03;;;82.63;;
64623;SDS011;51031;50.912;9.242;2023-05-01T01:13:51;118.15;;;82.72;;
64623;SDS011;51031;50.912;9.242;2023-05-01T01:14:14;130.38;;;88.40;;
64623;SDS011;51031;50.912;9.242;2023-05-01T01:14:35;129.85;;;88.63;;
64623;SDS011;51031;50.912;9.242;2023-05-01T01:14:57;128.75;;;89.18;;
64623;SDS011;51031;50.912;9.242;2023-05-01T01:15:18;130.13;;;91.18;;
64623;SDS011;51031;50.912;9.242;2023-05-01T01:15:43;128.38;;;87.07;;
64623;SDS011;51031;50.912;9.242;2023-05-01T01:16:08;117.72;;;81.05;;
64623;SDS011;51031;50.912;9.242;2023-05-01T01:16:33;123.57;;;83.18;;
64623;SDS011;51031;50.912;9.242;2023-05-01T01:16:56;116.32;;;78.95;;
64623;SDS011;51031;50.912;9.242;2023-05-01T01:17:16;119.13;;;80.43;;
64623;SDS011;51031;50.912;9.242;2023-05-01T01:17:40;119.97;;;81.75;;
64623;SDS011;51031;50.912;9.242;2023-05-01T01:18:05;113.50;;;78.85;;
64623;SDS011;51031;50.912;9.242;2023-05-01T01:18:26;119.35;;;82.63;;
64623;SDS011;51031;50.912;9.242;2023-05-01T01:19:00;133.07;;;89.35;;
64623;SDS011;51031;50.912;9.242;2023-05-01T01:19:34;110.25;;;74.78;;
64623;SDS011;51031;50.912;9.242;2023-05-01T01:20:20;132.88;;;90.75;;
64623;SDS011;51031;50.912;9.242;2023-05-01T01:20:45;121.28;;;83.10;;
64623;SDS011;51031;50.912;9.242;2023-05-01T01:21:11;125.47;;;85.00;;
64623;SDS011;51031;50.912;9.242;2023-05-01T01:21:33;129.95;;;86.28;;
64623;SDS011;51031;50.912;9.242;2023-05-01T01:21:52;122.60;;;83.90;;
64623;SDS011;51031;50.912;9.242;2023-05-01T01:22:14;124.05;;;84.50;;
64623;SDS011;51031;50.912;9.242;2023-05-01T01:22:35;122.50;;;83.70;;
64623;SDS011;51031;50.912;9.242;2023-05-01T01:23:00;128.60;;;88.03;;
64623;SDS011;51031;50.912;9.242;2023-05-01T01:24:06;133.32;;;90.13;;
64623;SDS011;51031;50.912;9.242;2023-05-01T01:24:40;118.38;;;81.57;;
64623;SDS011;51031;50.912;9.242;2023-05-01T01:25:13;132.88;;;88.18;;
64623;SDS011;51031;50.912;9.242;2023-05-01T01:26:02;125.60;;;84.88;;
64623;SDS011;51031;50.912;9.242;2023-05-01T01:26:26;131.52;;;88.20;;
64623;SDS011;51031;50.912;9.242;2023-05-01T01:27:57;135.70;;;91.43;;
64623;SDS011;51031;50.912;9.242;2023-05-01T01:30:27;137.52;;;91.75;;
64623;SDS011;51031;50.912;9.242;2023-05-01T01:30:58;120.38;;;81.72;;
64623;SDS011;51031;50.912;9.242;2023-05-01T01:31:28;136.38;;;91.95;;
64623;SDS011;51031;50.912;9.242;2023-05-01T01:31:51;139.23;;;93.18;;
64623;SDS011;51031;50.912;9.242;2023-05-01T01:32:26;131.32;;;88.85;;
64623;SDS011;51031;50.912;9.242;2023-05-01T01:33:16;143.73;;;97.35;;
64623;SDS011;51031;50.912;9.242;2023-05-01T01:33:59;129.23;;;88.32;;
64623;SDS011;51031;50.912;9.242;2023-05-01T01:34:18;138.38;;;95.50;;
64623;SDS011;51031;50.912;9.242;2023-05-01T01:34:39;136.30;;;91.68;;
64623;SDS011;51031;50.912;9.242;2023-05-01T01:35:00;139.70;;;92.60;;
64623;SDS011;51031;50.912;9.242;2023-05-01T01:35:19;144.10;;;97.03;;
64623;SDS011;51031;50.912;9.242;2023-05-01T01:35:38;140.77;;;94.95;;
64623;SDS011;51031;50.912;9.242;2023-05-01T01:36:01;133.45;;;90.38;;
64623;SDS011;51031;50.912;9.242;2023-05-01T01:36:25;143.02;;;93.65;;
64623;SDS011;51031;50.912;9.242;2023-05-01T01:36:50;149.20;;;100.32;;
64623;SDS011;51031;50.912;9.242;2023-05-01T01:37:13;145.77;;;97.13;;
64623;SDS011;51031;50.912;9.242;2023-05-01T01:37:36;135.02;;;91.38;;
64623;SDS011;51031;50.912;9.242;2023-05-01T01:37:56;135.80;;;92.88;;
64623;SDS011;51031;50.912;9.242;2023-05-01T01:38:18;135.32;;;92.00;;
64623;SDS011;51031;50.912;9.242;2023-05-01T01:38:39;124.70;;;85.90;;
64623;SDS011;51031;50.912;9.242;2023-05-01T01:38:59;140.65;;;94.80;;
64623;SDS011;51031;50.912;9.242;2023-05-01T01:39:23;144.57;;;96.00;;
64623;SDS011;51031;50.912;9.242;2023-05-01T01:39:44;136.93;;;92.43;;
64623;SDS011;51031;50.912;9.242;2023-05-01T01:40:04;133.57;;;90.65;;
64623;SDS011;51031;50.912;9.242;2023-05-01T01:40:24;143.90;;;96.22;;
64623;SDS011;51031;50.912;9.242;2023-05-01T01:40:49;143.88;;;97.15;;
64623;SDS011;51031;50.912;9.242;2023-05-01T01:41:11;139.50;;;94.13;;
64623;SDS011;51031;50.912;9.242;2023-05-01T01:41:29;152.23;;;101.20;;
64623;SDS011;51031;50.912;9.242;2023-05-01T01:41:48;152.93;;;101.13;;
64623;SDS011;51031;50.912;9.242;2023-05-01T01:42:08;151.90;;;100.88;;
64623;SDS011;51031;50.912;9.242;2023-05-01T01:42:29;151.38;;;101.05;;
64623;SDS011;51031;50.912;9.242;2023-05-01T01:42:57;142.90;;;96.22;;
64623;SDS011;51031;50.912;9.242;2023-05-01T01:43:17;156.20;;;104.60;;
64623;SDS011;51031;50.912;9.242;2023-05-01T01:43:36;143.25;;;96.55;;
64623;SDS011;51031;50.912;9.242;2023-05-01T01:44:00;128.65;;;86.57;;
64623;SDS011;51031;50.912;9.242;2023-05-01T01:44:19;148.98;;;99.75;;
64623;SDS011;51031;50.912;9.242;2023-05-01T01:44:42;155.20;;;103.45;;
64623;SDS011;51031;50.912;9.242;2023-05-01T01:45:05;143.52;;;96.75;;
64623;SDS011;51031;50.912;9.242;2023-05-01T01:45:28;139.93;;;94.07;;
64623;SDS011;51031;50.912;9.242;2023-05-01T01:45:48;145.40;;;98.97;;
64623;SDS011;51031;50.912;9.242;2023-05-01T01:46:11;150.45;;;101.20;;
64623;SDS011;51031;50.912;9.242;2023-05-01T01:46:27;150.65;;;101.30;;
64623;SDS011;51031;50.912;9.242;2023-05-01T01:46:44;156.57;;;105.43;;
64623;SDS011;51031;50.912;9.242;2023-05-01T01:47:00;151.45;;;101.63;;
64623;SDS011;51031;50.912;9.242;2023-05-01T01:47:19;136.70;;;92.50;;
64623;SDS011;51031;50.912;9.242;2023-05-01T01:47:38;127.72;;;86.43;;
64623;SDS011;51031;50.912;9.242;2023-05-01T01:47:56;146.90;;;98.03;;
64623;SDS011;51031;50.912;9.242;2023-05-01T01:48:13;145.38;;;97.28;;
64623;SDS011;51031;50.912;9.242;2023-05-01T01:48:33;139.00;;;93.30;;
64623;SDS011;51031;50.912;9.242;2023-05-01T01:48:50;128.38;;;87.47;;
64623;SDS011;51031;50.912;9.242;2023-05-01T01:49:12;121.40;;;82.45;;
64623;SDS011;51031;50.912;9.242;2023-05-01T01:49:33;141.25;;;94.47;;
64623;SDS011;51031;50.912;9.242;2023-05-01T01:49:53;148.15;;;100.05;;
64623;SDS011;51031;50.912;9.242;2023-05-01T01:50:11;148.60;;;101.38;;
64623;SDS011;51031;50.912;9.242;2023-05-01T01:50:29;146.43;;;100.53;;
64623;SDS011;51031;50.912;9.242;2023-05-01T01:50:46;151.75;;;102.72;;
64623;SDS011;51031;50.912;9.242;2023-05-01T01:51:04;145.80;;;97.63;;